sensor_id;sensor_type;location;lat;lon;timestamp;pressure;altitude;pressure_sealevel;temperature;humidity
52653;BME280;39353;42.864;12.014;2023-09-19T00:00:35;97570.39;;;26.85;47.05
52653;BME280;39353;42.864;12.014;2023-09-19T00:03:22;97572.41;;;26.83;47.01
52653;BME280;39353;42.864;12.014;2023-09-19T00:05:49;97567.60;;;26.80;47.09
52653;BME280;39353;42.864;12.014;2023-09-19T00:08:17;97557.86;;;26.80;47.15
52653;BME280;39353;42.864;12.014;2023-09-19T00:10:48;97555.48;;;26.80;47.19
52653;BME280;39353;42.864;12.014;2023-09-19T00:17:02;97566.09;;;26.82;47.18
52653;BME280;39353;42.864;12.014;2023-09-19T00:19:36;97561.55;;;26.82;47.35
52653;BME280;39353;42.864;12.014;2023-09-19T00:22:03;97561.67;;;26.82;47.18
52653;BME280;39353;42.864;12.014;2023-09-19T00:24:30;97563.19;;;26.80;47.21
52653;BME280;39353;42.864;12.014;2023-09-19T00:26:57;97553.74;;;26.79;46.97
52653;BME280;39353;42.864;12.014;2023-09-19T00:29:26;97547.68;;;26.78;47.29
52653;BME280;39353;42.864;12.014;2023-09-19T00:31:55;97544.81;;;26.77;46.93
52653;BME280;39353;42.864;12.014;2023-09-19T00:34:23;97551.52;;;26.77;46.73
52653;BME280;39353;42.864;12.014;2023-09-19T00:36:51;97556.14;;;26.76;46.88
52653;BME280;39353;42.864;12.014;2023-09-19T00:39:20;97566.16;;;26.76;46.75
52653;BME280;39353;42.864;12.014;2023-09-19T00:41:48;97558.67;;;26.74;46.60
52653;BME280;39353;42.864;12.014;2023-09-19T00:44:15;97558.66;;;26.73;46.88
52653;BME280;39353;42.864;12.014;2023-09-19T00:46:42;97556.02;;;26.72;46.72
52653;BME280;39353;42.864;12.014;2023-09-19T00:49:09;97551.27;;;26.72;46.69
52653;BME280;39353;42.864;12.014;2023-09-19T00:51:36;97543.61;;;26.71;46.86
52653;BME280;39353;42.864;12.014;2023-09-19T00:54:03;97542.19;;;26.71;46.80
52653;BME280;39353;42.864;12.014;2023-09-19T00:56:31;97542.64;;;26.73;46.97
52653;BME280;39353;42.864;12.014;2023-09-19T00:58:58;97535.61;;;26.73;46.92
52653;BME280;39353;42.864;12.014;2023-09-19T01:01:25;97531.30;;;26.73;46.87
52653;BME280;39353;42.864;12.014;2023-09-19T01:03:52;97515.11;;;26.72;46.84
52653;BME280;39353;42.864;12.014;2023-09-19T01:06:19;97516.04;;;26.71;46.79
52653;BME280;39353;42.864;12.014;2023-09-19T01:08:46;97522.95;;;26.69;46.77
52653;BME280;39353;42.864;12.014;2023-09-19T01:11:21;97541.88;;;26.69;46.93
52653;BME280;39353;42.864;12.014;2023-09-19T01:13:59;97544.74;;;26.68;46.84
52653;BME280;39353;42.864;12.014;2023-09-19T01:16:36;97539.73;;;26.69;46.99
52653;BME280;39353;42.864;12.014;2023-09-19T01:23:11;97529.42;;;26.67;46.98
52653;BME280;39353;42.864;12.014;2023-09-19T01:31:11;97549.01;;;26.64;47.07
52653;BME280;39353;42.864;12.014;2023-09-19T01:36:33;97557.36;;;26.63;46.91
52653;BME280;39353;42.864;12.014;2023-09-19T01:39:06;97554.72;;;26.62;47.07
52653;BME280;39353;42.864;12.014;2023-09-19T01:45:11;97561.05;;;26.62;46.79
52653;BME280;39353;42.864;12.014;2023-09-19T01:47:55;97552.02;;;26.61;46.92
52653;BME280;39353;42.864;12.014;2023-09-19T01:53:23;97563.14;;;26.60;46.96
52653;BME280;39353;42.864;12.014;2023-09-19T01:55:53;97567.10;;;26.61;46.93
52653;BME280;39353;42.864;12.014;2023-09-19T01:58:42;97564.89;;;26.59;46.98
52653;BME280;39353;42.864;12.014;2023-09-19T02:01:18;97566.09;;;26.59;47.17
52653;BME280;39353;42.864;12.014;2023-09-19T02:03:47;97562.35;;;26.59;47.21
52653;BME280;39353;42.864;12.014;2023-09-19T02:06:16;97560.73;;;26.58;47.27
52653;BME280;39353;42.864;12.014;2023-09-19T02:08:45;97559.06;;;26.59;47.42
52653;BME280;39353;42.864;12.014;2023-09-19T02:11:12;97551.19;;;26.60;47.56
52653;BME280;39353;42.864;12.014;2023-09-19T02:13:41;97545.02;;;26.60;47.49
52653;BME280;39353;42.864;12.014;2023-09-19T02:16:09;97538.46;;;26.58;47.62
52653;BME280;39353;42.864;12.014;2023-09-19T02:18:37;97545.45;;;26.58;47.82
52653;BME280;39353;42.864;12.014;2023-09-19T02:21:04;97545.33;;;26.58;47.87
52653;BME280;39353;42.864;12.014;2023-09-19T02:23:33;97543.40;;;26.58;48.09
52653;BME280;39353;42.864;12.014;2023-09-19T02:26:00;97543.13;;;26.57;48.16
52653;BME280;39353;42.864;12.014;2023-09-19T02:28:27;97543.68;;;26.58;48.32
52653;BME280;39353;42.864;12.014;2023-09-19T02:30:59;97539.55;;;26.57;48.31
52653;BME280;39353;42.864;12.014;2023-09-19T02:33:25;97537.35;;;26.58;48.41
52653;BME280;39353;42.864;12.014;2023-09-19T02:35:57;97538.06;;;26.57;48.48
52653;BME280;39353;42.864;12.014;2023-09-19T02:38:27;97538.73;;;26.56;48.55
52653;BME280;39353;42.864;12.014;2023-09-19T02:40:56;97538.33;;;26.56;48.55
52653;BME280;39353;42.864;12.014;2023-09-19T02:43:23;97547.52;;;26.55;48.63
52653;BME280;39353;42.864;12.014;2023-09-19T02:45:50;97549.77;;;26.55;48.84
52653;BME280;39353;42.864;12.014;2023-09-19T02:48:20;97547.13;;;26.55;48.85
52653;BME280;39353;42.864;12.014;2023-09-19T02:50:51;97544.16;;;26.55;48.90
52653;BME280;39353;42.864;12.014;2023-09-19T02:53:18;97546.97;;;26.55;49.06
52653;BME280;39353;42.864;12.014;2023-09-19T02:55:47;97553.18;;;26.55;49.10
52653;BME280;39353;42.864;12.014;2023-09-19T02:58:14;97556.59;;;26.55;49.16
52653;BME280;39353;42.864;12.014;2023-09-19T03:00:42;97555.71;;;26.55;49.27
52653;BME280;39353;42.864;12.014;2023-09-19T03:03:09;97550.43;;;26.55;49.41
52653;BME280;39353;42.864;12.014;2023-09-19T03:05:36;97548.89;;;26.55;49.43
52653;BME280;39353;42.864;12.014;2023-09-19T03:08:05;97541.58;;;26.55;49.48
52653;BME280;39353;42.864;12.014;2023-09-19T03:10:32;97536.29;;;26.55;49.66
52653;BME280;39353;42.864;12.014;2023-09-19T03:12:59;97533.09;;;26.55;49.67
52653;BME280;39353;42.864;12.014;2023-09-19T03:15:26;97534.02;;;26.53;49.69
52653;BME280;39353;42.864;12.014;2023-09-19T03:17:53;97531.39;;;26.54;49.79
52653;BME280;39353;42.864;12.014;2023-09-19T03:20:22;97524.06;;;26.54;49.91
52653;BME280;39353;42.864;12.014;2023-09-19T03:22:49;97513.66;;;26.53;50.02
52653;BME280;39353;42.864;12.014;2023-09-19T03:25:16;97513.59;;;26.53;50.07
52653;BME280;39353;42.864;12.014;2023-09-19T03:27:45;97512.33;;;26.54;50.08
52653;BME280;39353;42.864;12.014;2023-09-19T03:30:12;97513.99;;;26.55;50.16
52653;BME280;39353;42.864;12.014;2023-09-19T03:32:45;97510.30;;;26.55;50.19
52653;BME280;39353;42.864;12.014;2023-09-19T03:35:13;97508.98;;;26.55;50.08
52653;BME280;39353;42.864;12.014;2023-09-19T03:37:42;97509.32;;;26.55;50.03
52653;BME280;39353;42.864;12.014;2023-09-19T03:40:10;97503.53;;;26.55;50.09
52653;BME280;39353;42.864;12.014;2023-09-19T03:42:39;97497.15;;;26.53;49.96
52653;BME280;39353;42.864;12.014;2023-09-19T03:45:09;97496.66;;;26.53;50.03
52653;BME280;39353;42.864;12.014;2023-09-19T03:47:40;97493.45;;;26.54;50.24
52653;BME280;39353;42.864;12.014;2023-09-19T03:50:08;97488.13;;;26.55;50.07
52653;BME280;39353;42.864;12.014;2023-09-19T03:52:37;97488.08;;;26.56;49.97
52653;BME280;39353;42.864;12.014;2023-09-19T03:55:04;97494.48;;;26.56;50.05
52653;BME280;39353;42.864;12.014;2023-09-19T03:57:32;97487.96;;;26.55;49.79
52653;BME280;39353;42.864;12.014;2023-09-19T03:59:59;97490.94;;;26.54;49.75
52653;BME280;39353;42.864;12.014;2023-09-19T04:02:25;97481.96;;;26.54;49.63
52653;BME280;39353;42.864;12.014;2023-09-19T04:04:52;97478.06;;;26.55;49.71
52653;BME280;39353;42.864;12.014;2023-09-19T04:07:19;97472.83;;;26.55;49.39
52653;BME280;39353;42.864;12.014;2023-09-19T04:09:49;97470.81;;;26.56;49.38
52653;BME280;39353;42.864;12.014;2023-09-19T04:12:16;97470.04;;;26.55;49.26
52653;BME280;39353;42.864;12.014;2023-09-19T04:14:45;97473.39;;;26.55;49.34
52653;BME280;39353;42.864;12.014;2023-09-19T04:17:12;97476.80;;;26.55;49.32
52653;BME280;39353;42.864;12.014;2023-09-19T04:19:39;97471.90;;;26.55;49.12
52653;BME280;39353;42.864;12.014;2023-09-19T04:22:08;97475.67;;;26.54;49.18
52653;BME280;39353;42.864;12.014;2023-09-19T04:24:36;97479.81;;;26.54;49.16
52653;BME280;39353;42.864;12.014;2023-09-19T04:27:04;97480.09;;;26.54;48.96
52653;BME280;39353;42.864;12.014;2023-09-19T04:29:31;97486.20;;;26.54;48.91
52653;BME280;39353;42.864;12.014;2023-09-19T04:31:59;97492.58;;;26.53;48.92
52653;BME280;39353;42.864;12.014;2023-09-19T04:34:26;97496.09;;;26.52;48.75
52653;BME280;39353;42.864;12.014;2023-09-19T04:36:54;97497.41;;;26.52;48.74
52653;BME280;39353;42.864;12.014;2023-09-19T04:39:20;97493.84;;;26.52;48.86
52653;BME280;39353;42.864;12.014;2023-09-19T04:41:47;97498.17;;;26.52;48.61
52653;BME280;39353;42.864;12.014;2023-09-19T04:44:14;97495.02;;;26.51;48.75
52653;BME280;39353;42.864;12.014;2023-09-19T04:46:42;97493.42;;;26.50;48.78
52653;BME280;39353;42.864;12.014;2023-09-19T04:49:09;97490.95;;;26.50;48.83
52653;BME280;39353;42.864;12.014;2023-09-19T04:51:35;97490.63;;;26.50;48.92
52653;BME280;39353;42.864;12.014;2023-09-19T04:54:02;97499.70;;;26.50;49.08
52653;BME280;39353;42.864;12.014;2023-09-19T04:56:29;97502.90;;;26.50;49.10
52653;BME280;39353;42.864;12.014;2023-09-19T04:58:56;97501.73;;;26.50;48.92
52653;BME280;39353;42.864;12.014;2023-09-19T05:01:25;97500.64;;;26.49;49.11
52653;BME280;39353;42.864;12.014;2023-09-19T05:03:52;97502.23;;;26.48;49.10
52653;BME280;39353;42.864;12.014;2023-09-19T05:06:20;97503.27;;;26.47;49.07
52653;BME280;39353;42.864;12.014;2023-09-19T05:08:50;97502.11;;;26.47;49.03
52653;BME280;39353;42.864;12.014;2023-09-19T05:11:19;97508.14;;;26.46;48.99
52653;BME280;39353;42.864;12.014;2023-09-19T05:13:49;97507.48;;;26.44;48.87
52653;BME280;39353;42.864;12.014;2023-09-19T05:16:17;97514.56;;;26.44;49.02
52653;BME280;39353;42.864;12.014;2023-09-19T05:18:44;97519.19;;;26.44;49.05
52653;BME280;39353;42.864;12.014;2023-09-19T05:21:11;97518.36;;;26.43;49.27
52653;BME280;39353;42.864;12.014;2023-09-19T05:23:38;97520.11;;;26.42;49.29
52653;BME280;39353;42.864;12.014;2023-09-19T05:26:05;97515.64;;;26.40;49.25
52653;BME280;39353;42.864;12.014;2023-09-19T05:28:32;97523.09;;;26.37;49.10
52653;BME280;39353;42.864;12.014;2023-09-19T05:31:01;97528.46;;;26.33;49.30
52653;BME280;39353;42.864;12.014;2023-09-19T05:33:31;97534.45;;;26.32;49.15
52653;BME280;39353;42.864;12.014;2023-09-19T05:35:59;97532.89;;;26.30;49.27
52653;BME280;39353;42.864;12.014;2023-09-19T05:38:26;97531.92;;;26.28;49.49
52653;BME280;39353;42.864;12.014;2023-09-19T05:40:54;97534.20;;;26.29;49.39
52653;BME280;39353;42.864;12.014;2023-09-19T05:43:21;97542.65;;;26.32;49.55
52653;BME280;39353;42.864;12.014;2023-09-19T05:45:48;97548.48;;;26.34;49.33
52653;BME280;39353;42.864;12.014;2023-09-19T05:48:18;97549.48;;;26.33;49.39
52653;BME280;39353;42.864;12.014;2023-09-19T05:50:47;97549.41;;;26.31;49.51
52653;BME280;39353;42.864;12.014;2023-09-19T05:53:15;97551.75;;;26.29;49.70
52653;BME280;39353;42.864;12.014;2023-09-19T05:55:42;97555.73;;;26.20;49.92
52653;BME280;39353;42.864;12.014;2023-09-19T05:58:09;97563.80;;;26.10;50.20
52653;BME280;39353;42.864;12.014;2023-09-19T06:00:37;97563.94;;;25.98;50.55
52653;BME280;39353;42.864;12.014;2023-09-19T06:03:04;97562.70;;;25.90;50.79
52653;BME280;39353;42.864;12.014;2023-09-19T06:05:31;97561.89;;;25.86;50.80
52653;BME280;39353;42.864;12.014;2023-09-19T06:07:59;97552.61;;;25.84;51.02
52653;BME280;39353;42.864;12.014;2023-09-19T06:10:34;97560.59;;;25.89;50.91
52653;BME280;39353;42.864;12.014;2023-09-19T06:13:04;97561.96;;;25.94;51.09
52653;BME280;39353;42.864;12.014;2023-09-19T06:15:32;97565.08;;;25.97;51.04
52653;BME280;39353;42.864;12.014;2023-09-19T06:18:00;97565.86;;;25.84;51.46
52653;BME280;39353;42.864;12.014;2023-09-19T06:20:28;97565.80;;;25.71;51.72
52653;BME280;39353;42.864;12.014;2023-09-19T06:22:56;97566.83;;;25.58;52.21
52653;BME280;39353;42.864;12.014;2023-09-19T06:25:23;97568.10;;;25.49;52.50
52653;BME280;39353;42.864;12.014;2023-09-19T06:27:52;97570.39;;;25.48;52.62
52653;BME280;39353;42.864;12.014;2023-09-19T06:30:21;97573.97;;;25.52;52.72
52653;BME280;39353;42.864;12.014;2023-09-19T06:32:49;97580.98;;;25.54;52.91
52653;BME280;39353;42.864;12.014;2023-09-19T06:35:16;97583.11;;;25.54;53.08
52653;BME280;39353;42.864;12.014;2023-09-19T06:37:43;97589.12;;;25.56;53.12
52653;BME280;39353;42.864;12.014;2023-09-19T06:40:12;97588.70;;;25.57;53.23
52653;BME280;39353;42.864;12.014;2023-09-19T06:42:47;97583.35;;;25.61;53.09
52653;BME280;39353;42.864;12.014;2023-09-19T06:45:16;97586.12;;;25.63;53.18
52653;BME280;39353;42.864;12.014;2023-09-19T06:47:49;97590.94;;;25.66;53.13
52653;BME280;39353;42.864;12.014;2023-09-19T06:50:21;97593.30;;;25.62;53.16
52653;BME280;39353;42.864;12.014;2023-09-19T06:52:52;97595.77;;;25.48;53.55
52653;BME280;39353;42.864;12.014;2023-09-19T06:55:21;97592.88;;;25.42;53.65
52653;BME280;39353;42.864;12.014;2023-09-19T06:57:50;97592.22;;;25.49;53.63
52653;BME280;39353;42.864;12.014;2023-09-19T07:00:17;97593.20;;;25.57;53.27
52653;BME280;39353;42.864;12.014;2023-09-19T07:05:21;97587.23;;;25.63;52.98
52653;BME280;39353;42.864;12.014;2023-09-19T07:07:48;97588.65;;;25.58;53.18
52653;BME280;39353;42.864;12.014;2023-09-19T07:10:15;97585.54;;;25.56;53.22
52653;BME280;39353;42.864;12.014;2023-09-19T07:12:42;97573.55;;;25.54;53.42
52653;BME280;39353;42.864;12.014;2023-09-19T07:15:09;97571.55;;;25.57;53.33
52653;BME280;39353;42.864;12.014;2023-09-19T07:17:36;97570.25;;;25.64;53.25
52653;BME280;39353;42.864;12.014;2023-09-19T07:20:04;97573.10;;;25.67;53.45
52653;BME280;39353;42.864;12.014;2023-09-19T07:22:34;97576.81;;;25.69;54.08
52653;BME280;39353;42.864;12.014;2023-09-19T07:25:03;97582.41;;;25.73;54.18
52653;BME280;39353;42.864;12.014;2023-09-19T07:27:30;97584.02;;;25.69;54.24
52653;BME280;39353;42.864;12.014;2023-09-19T07:29:56;97594.70;;;25.72;54.06
52653;BME280;39353;42.864;12.014;2023-09-19T07:32:24;97600.50;;;25.74;54.28
52653;BME280;39353;42.864;12.014;2023-09-19T07:34:52;97603.78;;;25.77;54.28
52653;BME280;39353;42.864;12.014;2023-09-19T07:37:21;97601.94;;;25.80;54.36
52653;BME280;39353;42.864;12.014;2023-09-19T07:39:48;97604.07;;;25.87;53.86
52653;BME280;39353;42.864;12.014;2023-09-19T07:42:15;97607.60;;;25.98;53.40
52653;BME280;39353;42.864;12.014;2023-09-19T07:44:44;97609.08;;;26.07;53.17
52653;BME280;39353;42.864;12.014;2023-09-19T07:47:14;97613.36;;;26.16;52.87
52653;BME280;39353;42.864;12.014;2023-09-19T07:49:41;97613.91;;;26.24;52.88
52653;BME280;39353;42.864;12.014;2023-09-19T07:52:09;97613.86;;;26.25;53.20
52653;BME280;39353;42.864;12.014;2023-09-19T07:54:36;97614.55;;;26.24;53.11
52653;BME280;39353;42.864;12.014;2023-09-19T07:57:05;97618.16;;;26.29;52.85
52653;BME280;39353;42.864;12.014;2023-09-19T07:59:31;97618.64;;;26.37;52.78
52653;BME280;39353;42.864;12.014;2023-09-19T08:01:58;97618.80;;;26.42;52.86
52653;BME280;39353;42.864;12.014;2023-09-19T08:04:25;97620.91;;;26.48;52.74
52653;BME280;39353;42.864;12.014;2023-09-19T08:06:53;97625.50;;;26.55;52.80
52653;BME280;39353;42.864;12.014;2023-09-19T08:09:20;97627.47;;;26.59;52.83
52653;BME280;39353;42.864;12.014;2023-09-19T08:11:47;97628.53;;;26.63;52.78
52653;BME280;39353;42.864;12.014;2023-09-19T08:14:14;97630.82;;;26.67;52.82
52653;BME280;39353;42.864;12.014;2023-09-19T08:16:41;97630.22;;;26.71;52.65
52653;BME280;39353;42.864;12.014;2023-09-19T08:19:10;97629.64;;;26.76;52.91
52653;BME280;39353;42.864;12.014;2023-09-19T08:21:37;97628.84;;;26.79;52.93
52653;BME280;39353;42.864;12.014;2023-09-19T08:24:04;97632.09;;;26.81;52.89
52653;BME280;39353;42.864;12.014;2023-09-19T08:26:31;97633.96;;;26.82;53.34
52653;BME280;39353;42.864;12.014;2023-09-19T08:28:58;97632.92;;;26.79;53.62
52653;BME280;39353;42.864;12.014;2023-09-19T08:31:25;97631.10;;;26.79;53.47
52653;BME280;39353;42.864;12.014;2023-09-19T08:33:53;97632.25;;;26.78;53.32
52653;BME280;39353;42.864;12.014;2023-09-19T08:36:22;97634.88;;;26.77;53.21
52653;BME280;39353;42.864;12.014;2023-09-19T08:38:49;97634.00;;;26.77;53.15
52653;BME280;39353;42.864;12.014;2023-09-19T08:41:17;97631.84;;;26.76;53.23
52653;BME280;39353;42.864;12.014;2023-09-19T08:43:45;97636.41;;;26.76;53.14
52653;BME280;39353;42.864;12.014;2023-09-19T08:46:18;97639.23;;;26.76;53.14
52653;BME280;39353;42.864;12.014;2023-09-19T08:49:04;97642.23;;;26.74;53.15
52653;BME280;39353;42.864;12.014;2023-09-19T08:51:43;97642.16;;;26.73;53.11
52653;BME280;39353;42.864;12.014;2023-09-19T08:54:22;97642.70;;;26.67;53.86
52653;BME280;39353;42.864;12.014;2023-09-19T08:56:50;97641.45;;;26.60;53.80
52653;BME280;39353;42.864;12.014;2023-09-19T08:59:21;97643.50;;;26.60;53.93
52653;BME280;39353;42.864;12.014;2023-09-19T09:01:51;97643.11;;;26.60;53.88
52653;BME280;39353;42.864;12.014;2023-09-19T09:04:22;97641.19;;;26.61;53.83
52653;BME280;39353;42.864;12.014;2023-09-19T09:06:50;97641.29;;;26.61;54.36
52653;BME280;39353;42.864;12.014;2023-09-19T09:09:20;97640.54;;;26.57;54.87
52653;BME280;39353;42.864;12.014;2023-09-19T09:11:48;97647.41;;;26.57;54.67
52653;BME280;39353;42.864;12.014;2023-09-19T09:14:17;97640.45;;;26.58;54.26
52653;BME280;39353;42.864;12.014;2023-09-19T09:16:45;97641.08;;;26.60;54.02
52653;BME280;39353;42.864;12.014;2023-09-19T09:19:12;97637.83;;;26.61;53.84
52653;BME280;39353;42.864;12.014;2023-09-19T09:21:39;97636.40;;;26.61;54.01
52653;BME280;39353;42.864;12.014;2023-09-19T09:24:26;97629.96;;;26.62;53.87
52653;BME280;39353;42.864;12.014;2023-09-19T09:26:53;97632.65;;;26.61;53.73
52653;BME280;39353;42.864;12.014;2023-09-19T09:32:27;97630.08;;;26.64;53.94
52653;BME280;39353;42.864;12.014;2023-09-19T09:35:07;97622.67;;;26.66;54.21
52653;BME280;39353;42.864;12.014;2023-09-19T09:37:38;97625.52;;;26.70;54.05
52653;BME280;39353;42.864;12.014;2023-09-19T09:40:10;97622.64;;;26.74;54.24
52653;BME280;39353;42.864;12.014;2023-09-19T09:42:42;97622.82;;;26.77;54.10
52653;BME280;39353;42.864;12.014;2023-09-19T09:45:21;97622.05;;;26.81;54.22
52653;BME280;39353;42.864;12.014;2023-09-19T09:47:58;97620.45;;;26.85;54.00
52653;BME280;39353;42.864;12.014;2023-09-19T09:50:31;97622.06;;;26.88;54.20
52653;BME280;39353;42.864;12.014;2023-09-19T09:53:27;97620.56;;;26.85;54.91
52653;BME280;39353;42.864;12.014;2023-09-19T09:58:26;97607.62;;;26.80;55.28
52653;BME280;39353;42.864;12.014;2023-09-19T10:00:57;97607.35;;;26.81;55.37
52653;BME280;39353;42.864;12.014;2023-09-19T10:03:32;97600.63;;;26.80;55.39
52653;BME280;39353;42.864;12.014;2023-09-19T10:06:00;97596.74;;;26.82;55.64
52653;BME280;39353;42.864;12.014;2023-09-19T10:09:07;97598.73;;;26.90;55.48
52653;BME280;39353;42.864;12.014;2023-09-19T10:11:45;97597.21;;;26.94;55.41
52653;BME280;39353;42.864;12.014;2023-09-19T10:14:15;97596.58;;;26.97;55.56
52653;BME280;39353;42.864;12.014;2023-09-19T10:16:47;97596.66;;;27.00;55.51
52653;BME280;39353;42.864;12.014;2023-09-19T10:19:23;97600.83;;;26.99;55.29
52653;BME280;39353;42.864;12.014;2023-09-19T10:21:58;97598.34;;;26.96;55.43
52653;BME280;39353;42.864;12.014;2023-09-19T10:24:28;97596.25;;;26.90;55.41
52653;BME280;39353;42.864;12.014;2023-09-19T10:26:55;97598.06;;;26.90;55.16
52653;BME280;39353;42.864;12.014;2023-09-19T10:29:25;97595.00;;;26.92;55.07
52653;BME280;39353;42.864;12.014;2023-09-19T10:31:58;97593.91;;;26.94;54.70
52653;BME280;39353;42.864;12.014;2023-09-19T10:34:27;97592.48;;;26.95;54.57
52653;BME280;39353;42.864;12.014;2023-09-19T10:36:59;97587.77;;;26.97;54.72
52653;BME280;39353;42.864;12.014;2023-09-19T10:39:30;97585.09;;;27.00;54.56
52653;BME280;39353;42.864;12.014;2023-09-19T10:42:02;97583.30;;;27.01;54.84
52653;BME280;39353;42.864;12.014;2023-09-19T10:44:32;97582.20;;;27.04;54.79
52653;BME280;39353;42.864;12.014;2023-09-19T10:47:00;97578.92;;;27.08;54.59
52653;BME280;39353;42.864;12.014;2023-09-19T10:49:27;97574.83;;;27.14;54.91
52653;BME280;39353;42.864;12.014;2023-09-19T10:51:57;97577.56;;;27.20;55.20
52653;BME280;39353;42.864;12.014;2023-09-19T10:54:33;97575.89;;;27.27;55.85
